Impacts METAR Board
IDs:

KCVG - Cincinnati Intl, KY, US

Updated at: 1100 UTC 30 Oct 2020
Potential Impact None Slight Moderate High
Time 29/23Z 30/00Z 30/01Z 30/02Z 30/03Z 30/04Z 30/05Z 30/06Z 30/07Z 30/08Z 30/09Z 30/10Z 30/11Z
Temp47 46 45 45 45 46 46 45 45 44 44 44 43
Dewpt44 43 42 41 42 43 41 41 40 39 39 39 36
Altim29.72 29.74 29.78 29.81 29.86 29.89 29.92 29.94 29.97 29.99 30.01 30.04 30.08
VIS2.5 3 3 5 6 7 10 10 10 10 10 10 10
CIG8 8 8 28 9 13 13 13 16 15 19 18 20
CoverOVCOVCOVCOVCOVCOVCOVCOVCOVCOVCOVCOVCOVC
FltCatIFRIFRIFRMVFRIFRMVFRMVFRMVFRMVFRMVFRMVFRMVFRMVFR
WX-RA BR-RA BR-RA BR-RA BRBR----------------
WDir360350360350330330330340330340330310320
WSpd13 13 13 10 9 11 13 11 12 15 11 7 11
WGst-- -- -- -- -- -- -- -- -- -- -- -- --
Raw hourly METARs
KCVG 292252Z 36013KT 2 1/2SM -RA BR BKN008 OVC012 08/07 A2972 RMK AO2 SFC VIS 4 SLP060 CIG 006V009 P0002 T00830067
KCVG 292352Z 35013KT 3SM -RA BR BKN008 OVC012 08/06 A2974 RMK AO2 SFC VIS 6 SLP069 P0002 60012 T00780061 10094 20078 51025
KCVG 300052Z 36013KT 3SM -RA BR BKN008 OVC013 07/06 A2978 RMK AO2 SLP083 BKN V SCT P0001 T00720056
KCVG 300152Z 35010KT 5SM -RA BR SCT014 OVC028 07/05 A2981 RMK AO2 SLP095 P0003 T00720050
KCVG 300252Z 33009KT 6SM BR OVC009 07/06 A2986 RMK AO2 RAE42 SLP112 P0001 60005 T00720056 53041
KCVG 300352Z 33011KT 7SM BKN013 OVC037 08/06 A2989 RMK AO2 SLP122 T00780061
KCVG 300452Z 33013KT 10SM OVC013 08/05 A2992 RMK AO2 SLP130 T00780050 401220072
KCVG 300552Z 34011KT 10SM OVC013 07/05 A2994 RMK AO2 SLP138 60005 T00720050 10078 20072 51025
KCVG 300652Z 33012KT 10SM OVC016 07/04 A2997 RMK AO2 SLP149 T00720044
KCVG 300804Z 34015KT 10SM OVC015 07/04 A2999 RMK AO2 T00670039
KCVG 300852Z 33011KT 10SM OVC019 07/04 A3001 RMK AO2 SLP161 T00670039 51022
KCVG 300952Z 31007KT 10SM BKN018 OVC028 07/04 A3004 RMK AO2 SLP173 T00670039
KCVG 301052Z 32011KT 10SM OVC020 06/02 A3008 RMK AO2 SLP185 T00610022



Page loaded:  11:30 UTC  |   04:30 AM Pacific  |   05:30 AM Mountain  |   06:30 AM Central  |   07:30 AM Eastern

 

ADVISORIES

FORECASTS

FORECASTS

OBSERVATIONS

USER TOOLS

ABOUT US